sensor_id;sensor_type;location;lat;lon;timestamp;P1;durP1;ratioP1;P2;durP2;ratioP2
72198;SDS011;72266;51.056;16.880;2024-03-08T00:00:56;32.70;;;13.50;;
72198;SDS011;72266;51.056;16.880;2024-03-08T00:03:45;33.30;;;13.20;;
72198;SDS011;72266;51.056;16.880;2024-03-08T00:06:18;23.10;;;9.60;;
72198;SDS011;72266;51.056;16.880;2024-03-08T00:08:51;31.40;;;13.20;;
72198;SDS011;72266;51.056;16.880;2024-03-08T00:11:24;32.70;;;13.20;;
72198;SDS011;72266;51.056;16.880;2024-03-08T00:13:57;30.20;;;13.60;;
72198;SDS011;72266;51.056;16.880;2024-03-08T00:16:30;33.80;;;14.10;;
72198;SDS011;72266;51.056;16.880;2024-03-08T00:19:03;35.30;;;13.80;;
72198;SDS011;72266;51.056;16.880;2024-03-08T00:21:36;32.10;;;12.60;;
72198;SDS011;72266;51.056;16.880;2024-03-08T00:24:09;31.80;;;14.40;;
72198;SDS011;72266;51.056;16.880;2024-03-08T00:26:45;31.40;;;13.20;;
72198;SDS011;72266;51.056;16.880;2024-03-08T00:29:18;35.50;;;13.90;;
72198;SDS011;72266;51.056;16.880;2024-03-08T00:31:52;31.20;;;13.30;;
72198;SDS011;72266;51.056;16.880;2024-03-08T00:34:25;31.10;;;12.90;;
72198;SDS011;72266;51.056;16.880;2024-03-08T00:37:04;35.50;;;14.40;;
72198;SDS011;72266;51.056;16.880;2024-03-08T00:39:38;33.60;;;14.00;;
72198;SDS011;72266;51.056;16.880;2024-03-08T00:42:12;33.60;;;13.10;;
72198;SDS011;72266;51.056;16.880;2024-03-08T00:44:46;35.50;;;13.80;;
72198;SDS011;72266;51.056;16.880;2024-03-08T00:47:21;33.70;;;13.30;;
72198;SDS011;72266;51.056;16.880;2024-03-08T00:49:55;34.00;;;14.10;;
72198;SDS011;72266;51.056;16.880;2024-03-08T00:52:29;29.70;;;13.00;;
72198;SDS011;72266;51.056;16.880;2024-03-08T00:55:05;33.10;;;13.50;;
72198;SDS011;72266;51.056;16.880;2024-03-08T00:57:40;32.70;;;13.30;;
72198;SDS011;72266;51.056;16.880;2024-03-08T01:00:16;32.50;;;14.40;;
72198;SDS011;72266;51.056;16.880;2024-03-08T01:02:51;37.80;;;13.70;;
72198;SDS011;72266;51.056;16.880;2024-03-08T01:05:25;34.90;;;14.70;;
72198;SDS011;72266;51.056;16.880;2024-03-08T01:07:58;38.20;;;15.10;;
72198;SDS011;72266;51.056;16.880;2024-03-08T01:10:32;46.30;;;16.70;;
72198;SDS011;72266;51.056;16.880;2024-03-08T01:13:07;41.20;;;15.60;;
72198;SDS011;72266;51.056;16.880;2024-03-08T01:15:40;39.20;;;16.20;;
72198;SDS011;72266;51.056;16.880;2024-03-08T01:18:16;47.00;;;17.30;;
72198;SDS011;72266;51.056;16.880;2024-03-08T01:20:51;51.00;;;19.10;;
72198;SDS011;72266;51.056;16.880;2024-03-08T01:23:24;64.40;;;22.40;;
72198;SDS011;72266;51.056;16.880;2024-03-08T01:25:57;43.70;;;16.00;;
72198;SDS011;72266;51.056;16.880;2024-03-08T01:28:30;36.90;;;14.60;;
72198;SDS011;72266;51.056;16.880;2024-03-08T01:31:04;34.00;;;14.20;;
72198;SDS011;72266;51.056;16.880;2024-03-08T01:33:47;37.60;;;15.90;;
72198;SDS011;72266;51.056;16.880;2024-03-08T01:36:20;30.70;;;12.30;;
72198;SDS011;72266;51.056;16.880;2024-03-08T01:38:54;33.20;;;13.60;;
72198;SDS011;72266;51.056;16.880;2024-03-08T01:44:16;33.60;;;13.90;;
72198;SDS011;72266;51.056;16.880;2024-03-08T01:46:49;36.30;;;14.70;;
72198;SDS011;72266;51.056;16.880;2024-03-08T01:49:24;31.70;;;13.30;;
72198;SDS011;72266;51.056;16.880;2024-03-08T01:51:59;35.30;;;14.80;;
72198;SDS011;72266;51.056;16.880;2024-03-08T01:54:32;31.20;;;14.30;;
72198;SDS011;72266;51.056;16.880;2024-03-08T01:57:06;36.90;;;15.60;;
72198;SDS011;72266;51.056;16.880;2024-03-08T01:59:42;33.10;;;14.60;;
72198;SDS011;72266;51.056;16.880;2024-03-08T02:02:17;33.30;;;15.30;;
72198;SDS011;72266;51.056;16.880;2024-03-08T02:04:50;37.10;;;16.00;;
72198;SDS011;72266;51.056;16.880;2024-03-08T02:07:24;38.40;;;16.80;;
72198;SDS011;72266;51.056;16.880;2024-03-08T02:09:57;37.10;;;15.80;;
72198;SDS011;72266;51.056;16.880;2024-03-08T02:12:30;39.80;;;16.20;;
72198;SDS011;72266;51.056;16.880;2024-03-08T02:15:03;40.60;;;15.30;;
72198;SDS011;72266;51.056;16.880;2024-03-08T02:17:38;40.60;;;16.40;;
72198;SDS011;72266;51.056;16.880;2024-03-08T02:20:11;44.00;;;17.70;;
72198;SDS011;72266;51.056;16.880;2024-03-08T02:22:44;41.90;;;16.70;;
72198;SDS011;72266;51.056;16.880;2024-03-08T02:25:18;45.30;;;17.50;;
72198;SDS011;72266;51.056;16.880;2024-03-08T02:27:51;41.50;;;15.40;;
72198;SDS011;72266;51.056;16.880;2024-03-08T02:30:24;38.00;;;16.10;;
72198;SDS011;72266;51.056;16.880;2024-03-08T02:32:59;39.30;;;16.30;;
72198;SDS011;72266;51.056;16.880;2024-03-08T02:35:32;39.00;;;16.00;;
72198;SDS011;72266;51.056;16.880;2024-03-08T02:38:06;37.60;;;15.80;;
72198;SDS011;72266;51.056;16.880;2024-03-08T02:40:39;36.50;;;14.80;;
72198;SDS011;72266;51.056;16.880;2024-03-08T02:43:12;34.90;;;15.30;;
72198;SDS011;72266;51.056;16.880;2024-03-08T02:45:50;39.80;;;16.40;;
72198;SDS011;72266;51.056;16.880;2024-03-08T02:48:24;37.00;;;14.80;;
72198;SDS011;72266;51.056;16.880;2024-03-08T02:50:57;33.70;;;15.00;;
72198;SDS011;72266;51.056;16.880;2024-03-08T02:53:32;42.90;;;17.70;;
72198;SDS011;72266;51.056;16.880;2024-03-08T02:56:05;40.70;;;17.00;;
72198;SDS011;72266;51.056;16.880;2024-03-08T02:58:43;40.10;;;16.00;;
72198;SDS011;72266;51.056;16.880;2024-03-08T03:01:18;34.70;;;13.50;;
72198;SDS011;72266;51.056;16.880;2024-03-08T03:03:52;33.60;;;14.10;;
72198;SDS011;72266;51.056;16.880;2024-03-08T03:06:25;33.90;;;13.50;;
72198;SDS011;72266;51.056;16.880;2024-03-08T03:08:58;30.80;;;13.60;;
72198;SDS011;72266;51.056;16.880;2024-03-08T03:11:31;35.50;;;15.10;;
72198;SDS011;72266;51.056;16.880;2024-03-08T03:14:05;38.40;;;15.50;;
72198;SDS011;72266;51.056;16.880;2024-03-08T03:16:38;39.90;;;15.80;;
72198;SDS011;72266;51.056;16.880;2024-03-08T03:19:14;39.00;;;15.30;;
72198;SDS011;72266;51.056;16.880;2024-03-08T03:21:47;37.10;;;15.30;;
72198;SDS011;72266;51.056;16.880;2024-03-08T03:24:21;34.70;;;15.50;;
72198;SDS011;72266;51.056;16.880;2024-03-08T03:26:54;31.50;;;12.80;;
72198;SDS011;72266;51.056;16.880;2024-03-08T03:29:32;30.30;;;12.20;;
72198;SDS011;72266;51.056;16.880;2024-03-08T03:32:05;31.20;;;12.80;;
72198;SDS011;72266;51.056;16.880;2024-03-08T03:34:38;37.60;;;14.20;;
72198;SDS011;72266;51.056;16.880;2024-03-08T03:37:14;34.30;;;14.00;;
72198;SDS011;72266;51.056;16.880;2024-03-08T03:39:47;32.50;;;13.20;;
72198;SDS011;72266;51.056;16.880;2024-03-08T03:42:23;30.50;;;12.80;;
72198;SDS011;72266;51.056;16.880;2024-03-08T03:44:56;30.40;;;13.70;;
72198;SDS011;72266;51.056;16.880;2024-03-08T03:47:30;36.70;;;13.30;;
72198;SDS011;72266;51.056;16.880;2024-03-08T03:50:03;27.60;;;10.50;;
72198;SDS011;72266;51.056;16.880;2024-03-08T03:52:39;33.80;;;13.10;;
72198;SDS011;72266;51.056;16.880;2024-03-08T03:55:13;38.00;;;14.60;;
72198;SDS011;72266;51.056;16.880;2024-03-08T03:57:46;37.60;;;14.50;;
72198;SDS011;72266;51.056;16.880;2024-03-08T04:00:20;37.90;;;14.50;;
72198;SDS011;72266;51.056;16.880;2024-03-08T04:02:53;37.50;;;14.50;;
72198;SDS011;72266;51.056;16.880;2024-03-08T04:05:29;34.30;;;12.80;;
72198;SDS011;72266;51.056;16.880;2024-03-08T04:08:03;62.50;;;23.10;;
72198;SDS011;72266;51.056;16.880;2024-03-08T04:10:36;31.30;;;12.80;;
72198;SDS011;72266;51.056;16.880;2024-03-08T04:13:11;38.30;;;16.20;;
72198;SDS011;72266;51.056;16.880;2024-03-08T04:15:56;51.30;;;20.90;;
72198;SDS011;72266;51.056;16.880;2024-03-08T04:18:29;52.50;;;22.40;;
72198;SDS011;72266;51.056;16.880;2024-03-08T04:21:05;47.60;;;18.60;;
72198;SDS011;72266;51.056;16.880;2024-03-08T04:23:39;42.20;;;16.90;;
72198;SDS011;72266;51.056;16.880;2024-03-08T04:26:15;36.30;;;15.30;;
72198;SDS011;72266;51.056;16.880;2024-03-08T04:28:48;38.70;;;16.10;;
72198;SDS011;72266;51.056;16.880;2024-03-08T04:31:21;43.30;;;17.20;;
72198;SDS011;72266;51.056;16.880;2024-03-08T04:33:56;38.00;;;15.00;;
72198;SDS011;72266;51.056;16.880;2024-03-08T04:36:30;38.60;;;16.70;;
72198;SDS011;72266;51.056;16.880;2024-03-08T04:39:07;39.50;;;17.20;;
72198;SDS011;72266;51.056;16.880;2024-03-08T04:41:43;33.70;;;14.20;;
72198;SDS011;72266;51.056;16.880;2024-03-08T04:44:18;40.50;;;15.40;;
72198;SDS011;72266;51.056;16.880;2024-03-08T04:46:51;39.00;;;15.90;;
72198;SDS011;72266;51.056;16.880;2024-03-08T04:49:24;31.40;;;11.80;;
72198;SDS011;72266;51.056;16.880;2024-03-08T04:51:58;39.60;;;15.90;;
72198;SDS011;72266;51.056;16.880;2024-03-08T04:54:33;35.70;;;14.80;;
72198;SDS011;72266;51.056;16.880;2024-03-08T04:57:08;38.60;;;14.10;;
72198;SDS011;72266;51.056;16.880;2024-03-08T04:59:41;35.30;;;14.80;;
72198;SDS011;72266;51.056;16.880;2024-03-08T05:02:14;37.80;;;14.30;;
72198;SDS011;72266;51.056;16.880;2024-03-08T05:04:48;35.30;;;13.80;;
72198;SDS011;72266;51.056;16.880;2024-03-08T05:07:21;36.00;;;14.90;;
72198;SDS011;72266;51.056;16.880;2024-03-08T05:09:54;29.70;;;12.10;;
72198;SDS011;72266;51.056;16.880;2024-03-08T05:12:27;34.20;;;13.40;;
72198;SDS011;72266;51.056;16.880;2024-03-08T05:15:01;34.60;;;14.80;;
72198;SDS011;72266;51.056;16.880;2024-03-08T05:17:34;35.70;;;14.50;;
72198;SDS011;72266;51.056;16.880;2024-03-08T05:20:10;36.20;;;16.00;;
72198;SDS011;72266;51.056;16.880;2024-03-08T05:22:44;37.50;;;14.70;;
72198;SDS011;72266;51.056;16.880;2024-03-08T05:25:17;36.60;;;14.40;;
72198;SDS011;72266;51.056;16.880;2024-03-08T05:27:50;36.50;;;14.60;;
72198;SDS011;72266;51.056;16.880;2024-03-08T05:30:24;36.20;;;14.40;;
72198;SDS011;72266;51.056;16.880;2024-03-08T05:32:57;38.90;;;15.10;;
72198;SDS011;72266;51.056;16.880;2024-03-08T05:35:30;37.80;;;15.40;;
72198;SDS011;72266;51.056;16.880;2024-03-08T05:38:05;29.70;;;11.80;;
72198;SDS011;72266;51.056;16.880;2024-03-08T05:40:39;32.80;;;14.00;;
72198;SDS011;72266;51.056;16.880;2024-03-08T05:43:15;34.40;;;14.70;;
72198;SDS011;72266;51.056;16.880;2024-03-08T05:45:50;43.50;;;15.90;;
72198;SDS011;72266;51.056;16.880;2024-03-08T05:48:26;37.20;;;14.30;;
72198;SDS011;72266;51.056;16.880;2024-03-08T05:51:01;41.70;;;16.00;;
72198;SDS011;72266;51.056;16.880;2024-03-08T05:53:34;40.30;;;14.90;;
72198;SDS011;72266;51.056;16.880;2024-03-08T05:56:09;38.00;;;15.40;;
72198;SDS011;72266;51.056;16.880;2024-03-08T05:58:48;34.80;;;14.60;;
72198;SDS011;72266;51.056;16.880;2024-03-08T06:01:22;34.60;;;14.20;;
72198;SDS011;72266;51.056;16.880;2024-03-08T06:03:57;33.60;;;14.00;;
72198;SDS011;72266;51.056;16.880;2024-03-08T06:06:30;33.60;;;13.80;;
72198;SDS011;72266;51.056;16.880;2024-03-08T06:09:04;41.20;;;16.80;;
72198;SDS011;72266;51.056;16.880;2024-03-08T06:11:43;38.50;;;15.80;;
72198;SDS011;72266;51.056;16.880;2024-03-08T06:14:16;37.70;;;14.60;;
72198;SDS011;72266;51.056;16.880;2024-03-08T06:16:49;35.70;;;14.80;;
72198;SDS011;72266;51.056;16.880;2024-03-08T06:19:23;36.90;;;13.10;;
72198;SDS011;72266;51.056;16.880;2024-03-08T06:21:56;37.20;;;14.80;;
72198;SDS011;72266;51.056;16.880;2024-03-08T06:24:30;39.20;;;14.80;;
72198;SDS011;72266;51.056;16.880;2024-03-08T06:27:06;38.70;;;14.70;;
72198;SDS011;72266;51.056;16.880;2024-03-08T06:29:40;29.40;;;11.90;;
72198;SDS011;72266;51.056;16.880;2024-03-08T06:32:13;36.00;;;13.70;;
72198;SDS011;72266;51.056;16.880;2024-03-08T06:34:48;29.20;;;11.50;;
72198;SDS011;72266;51.056;16.880;2024-03-08T06:37:21;30.40;;;12.00;;
72198;SDS011;72266;51.056;16.880;2024-03-08T06:39:54;40.10;;;14.50;;
72198;SDS011;72266;51.056;16.880;2024-03-08T06:42:28;41.10;;;15.70;;
72198;SDS011;72266;51.056;16.880;2024-03-08T06:45:03;33.40;;;12.40;;
72198;SDS011;72266;51.056;16.880;2024-03-08T06:47:39;35.60;;;14.80;;
72198;SDS011;72266;51.056;16.880;2024-03-08T06:50:14;39.20;;;17.00;;
72198;SDS011;72266;51.056;16.880;2024-03-08T06:52:47;38.10;;;15.10;;
72198;SDS011;72266;51.056;16.880;2024-03-08T06:55:23;37.70;;;16.40;;
72198;SDS011;72266;51.056;16.880;2024-03-08T06:57:57;40.10;;;17.20;;
72198;SDS011;72266;51.056;16.880;2024-03-08T07:00:30;45.10;;;18.80;;
72198;SDS011;72266;51.056;16.880;2024-03-08T07:03:06;31.30;;;13.90;;
72198;SDS011;72266;51.056;16.880;2024-03-08T07:05:45;43.60;;;16.10;;
72198;SDS011;72266;51.056;16.880;2024-03-08T07:08:18;30.80;;;13.40;;
72198;SDS011;72266;51.056;16.880;2024-03-08T07:10:54;38.30;;;16.90;;
72198;SDS011;72266;51.056;16.880;2024-03-08T07:13:29;34.50;;;16.50;;
72198;SDS011;72266;51.056;16.880;2024-03-08T07:16:02;39.10;;;16.20;;
72198;SDS011;72266;51.056;16.880;2024-03-08T07:18:40;29.40;;;11.30;;
72198;SDS011;72266;51.056;16.880;2024-03-08T07:21:14;35.40;;;15.70;;
72198;SDS011;72266;51.056;16.880;2024-03-08T07:23:49;41.20;;;16.90;;
72198;SDS011;72266;51.056;16.880;2024-03-08T07:26:40;41.30;;;15.50;;
72198;SDS011;72266;51.056;16.880;2024-03-08T07:29:13;36.60;;;16.40;;
72198;SDS011;72266;51.056;16.880;2024-03-08T07:31:48;29.60;;;11.80;;
72198;SDS011;72266;51.056;16.880;2024-03-08T07:34:31;38.00;;;15.50;;
72198;SDS011;72266;51.056;16.880;2024-03-08T07:37:05;35.90;;;15.60;;
72198;SDS011;72266;51.056;16.880;2024-03-08T07:39:41;30.70;;;12.70;;
72198;SDS011;72266;51.056;16.880;2024-03-08T07:42:14;39.10;;;17.10;;
72198;SDS011;72266;51.056;16.880;2024-03-08T07:44:48;41.50;;;16.50;;
72198;SDS011;72266;51.056;16.880;2024-03-08T07:47:22;41.30;;;16.40;;
72198;SDS011;72266;51.056;16.880;2024-03-08T07:49:56;39.40;;;16.40;;
72198;SDS011;72266;51.056;16.880;2024-03-08T07:52:33;36.40;;;15.50;;
72198;SDS011;72266;51.056;16.880;2024-03-08T07:55:07;40.70;;;18.50;;
72198;SDS011;72266;51.056;16.880;2024-03-08T07:57:43;37.50;;;17.10;;
72198;SDS011;72266;51.056;16.880;2024-03-08T08:00:18;43.30;;;18.10;;
72198;SDS011;72266;51.056;16.880;2024-03-08T08:02:51;39.60;;;16.20;;
72198;SDS011;72266;51.056;16.880;2024-03-08T08:05:25;40.50;;;16.60;;
72198;SDS011;72266;51.056;16.880;2024-03-08T08:08:00;43.10;;;18.50;;
72198;SDS011;72266;51.056;16.880;2024-03-08T08:10:36;38.60;;;17.10;;
72198;SDS011;72266;51.056;16.880;2024-03-08T08:13:09;41.20;;;17.20;;
72198;SDS011;72266;51.056;16.880;2024-03-08T08:15:43;49.00;;;19.00;;
72198;SDS011;72266;51.056;16.880;2024-03-08T08:18:17;48.30;;;20.60;;
72198;SDS011;72266;51.056;16.880;2024-03-08T08:20:54;43.60;;;19.30;;
72198;SDS011;72266;51.056;16.880;2024-03-08T08:23:28;41.70;;;18.60;;
72198;SDS011;72266;51.056;16.880;2024-03-08T08:26:03;43.10;;;19.40;;
72198;SDS011;72266;51.056;16.880;2024-03-08T08:28:39;45.70;;;20.10;;
72198;SDS011;72266;51.056;16.880;2024-03-08T08:31:19;44.30;;;20.10;;
72198;SDS011;72266;51.056;16.880;2024-03-08T08:33:53;46.10;;;20.00;;
72198;SDS011;72266;51.056;16.880;2024-03-08T08:36:28;44.70;;;20.10;;
72198;SDS011;72266;51.056;16.880;2024-03-08T08:39:01;53.20;;;20.50;;
72198;SDS011;72266;51.056;16.880;2024-03-08T08:41:44;47.90;;;20.00;;
72198;SDS011;72266;51.056;16.880;2024-03-08T08:44:18;44.30;;;19.00;;
72198;SDS011;72266;51.056;16.880;2024-03-08T08:46:51;37.00;;;15.90;;
72198;SDS011;72266;51.056;16.880;2024-03-08T08:49:35;38.30;;;18.40;;
72198;SDS011;72266;51.056;16.880;2024-03-08T08:52:09;43.30;;;19.60;;
72198;SDS011;72266;51.056;16.880;2024-03-08T08:54:46;41.10;;;18.60;;
72198;SDS011;72266;51.056;16.880;2024-03-08T08:57:21;47.20;;;21.30;;
72198;SDS011;72266;51.056;16.880;2024-03-08T08:59:55;44.60;;;20.10;;
72198;SDS011;72266;51.056;16.880;2024-03-08T09:02:31;44.00;;;20.20;;
72198;SDS011;72266;51.056;16.880;2024-03-08T09:05:06;44.40;;;20.20;;
72198;SDS011;72266;51.056;16.880;2024-03-08T09:07:40;37.80;;;17.90;;
72198;SDS011;72266;51.056;16.880;2024-03-08T09:10:16;44.10;;;20.20;;
72198;SDS011;72266;51.056;16.880;2024-03-08T09:12:49;46.80;;;20.60;;
72198;SDS011;72266;51.056;16.880;2024-03-08T09:15:22;42.00;;;19.30;;
72198;SDS011;72266;51.056;16.880;2024-03-08T09:18:00;40.90;;;18.70;;
72198;SDS011;72266;51.056;16.880;2024-03-08T09:20:35;34.90;;;16.70;;
72198;SDS011;72266;51.056;16.880;2024-03-08T09:23:11;58.00;;;19.60;;
72198;SDS011;72266;51.056;16.880;2024-03-08T09:25:47;40.80;;;19.40;;
72198;SDS011;72266;51.056;16.880;2024-03-08T09:28:22;41.60;;;18.10;;
72198;SDS011;72266;51.056;16.880;2024-03-08T09:30:57;40.20;;;18.40;;
72198;SDS011;72266;51.056;16.880;2024-03-08T09:33:32;42.20;;;19.80;;
72198;SDS011;72266;51.056;16.880;2024-03-08T09:36:06;37.30;;;17.80;;
72198;SDS011;72266;51.056;16.880;2024-03-08T09:38:43;34.20;;;15.40;;
72198;SDS011;72266;51.056;16.880;2024-03-08T09:41:19;34.70;;;15.80;;
72198;SDS011;72266;51.056;16.880;2024-03-08T09:43:55;37.80;;;17.00;;
72198;SDS011;72266;51.056;16.880;2024-03-08T09:46:34;36.60;;;17.00;;
72198;SDS011;72266;51.056;16.880;2024-03-08T09:49:22;37.10;;;16.80;;
72198;SDS011;72266;51.056;16.880;2024-03-08T09:51:55;38.60;;;18.80;;
72198;SDS011;72266;51.056;16.880;2024-03-08T09:54:29;37.70;;;17.50;;
72198;SDS011;72266;51.056;16.880;2024-03-08T09:57:02;35.80;;;16.90;;
72198;SDS011;72266;51.056;16.880;2024-03-08T09:59:38;38.70;;;19.00;;
72198;SDS011;72266;51.056;16.880;2024-03-08T10:02:17;32.50;;;15.70;;
72198;SDS011;72266;51.056;16.880;2024-03-08T10:04:52;39.20;;;18.60;;
72198;SDS011;72266;51.056;16.880;2024-03-08T10:07:26;36.40;;;17.50;;
72198;SDS011;72266;51.056;16.880;2024-03-08T10:10:00;33.80;;;16.60;;
72198;SDS011;72266;51.056;16.880;2024-03-08T10:12:33;32.10;;;16.10;;
72198;SDS011;72266;51.056;16.880;2024-03-08T10:15:08;36.80;;;17.40;;
72198;SDS011;72266;51.056;16.880;2024-03-08T10:17:44;32.20;;;16.30;;
72198;SDS011;72266;51.056;16.880;2024-03-08T10:20:19;33.30;;;15.50;;
72198;SDS011;72266;51.056;16.880;2024-03-08T10:22:54;35.40;;;18.40;;
72198;SDS011;72266;51.056;16.880;2024-03-08T10:25:41;31.00;;;14.00;;
72198;SDS011;72266;51.056;16.880;2024-03-08T10:28:19;43.10;;;19.20;;
72198;SDS011;72266;51.056;16.880;2024-03-08T10:30:58;37.60;;;19.10;;
72198;SDS011;72266;51.056;16.880;2024-03-08T10:33:32;38.50;;;19.50;;
72198;SDS011;72266;51.056;16.880;2024-03-08T10:36:10;38.30;;;18.30;;
72198;SDS011;72266;51.056;16.880;2024-03-08T10:38:44;40.20;;;19.50;;
72198;SDS011;72266;51.056;16.880;2024-03-08T10:41:19;36.20;;;17.80;;
72198;SDS011;72266;51.056;16.880;2024-03-08T10:44:02;40.40;;;19.70;;
72198;SDS011;72266;51.056;16.880;2024-03-08T10:49:42;37.20;;;17.80;;
72198;SDS011;72266;51.056;16.880;2024-03-08T10:52:37;37.20;;;18.10;;
72198;SDS011;72266;51.056;16.880;2024-03-08T10:55:11;34.20;;;16.40;;
72198;SDS011;72266;51.056;16.880;2024-03-08T10:57:52;38.30;;;19.10;;
72198;SDS011;72266;51.056;16.880;2024-03-08T11:00:27;35.40;;;17.00;;
72198;SDS011;72266;51.056;16.880;2024-03-08T11:03:02;38.40;;;17.70;;
72198;SDS011;72266;51.056;16.880;2024-03-08T11:05:37;29.30;;;13.70;;
72198;SDS011;72266;51.056;16.880;2024-03-08T11:08:19;30.00;;;15.60;;
72198;SDS011;72266;51.056;16.880;2024-03-08T11:10:53;33.20;;;16.70;;
72198;SDS011;72266;51.056;16.880;2024-03-08T11:13:36;32.90;;;16.10;;
72198;SDS011;72266;51.056;16.880;2024-03-08T11:22:02;35.00;;;16.60;;
72198;SDS011;72266;51.056;16.880;2024-03-08T11:24:39;33.40;;;16.80;;
72198;SDS011;72266;51.056;16.880;2024-03-08T11:27:16;33.20;;;16.20;;
72198;SDS011;72266;51.056;16.880;2024-03-08T11:30:01;30.30;;;14.20;;
72198;SDS011;72266;51.056;16.880;2024-03-08T11:32:47;30.60;;;14.40;;
72198;SDS011;72266;51.056;16.880;2024-03-08T11:35:22;34.90;;;14.50;;
72198;SDS011;72266;51.056;16.880;2024-03-08T11:37:59;35.90;;;16.80;;
72198;SDS011;72266;51.056;16.880;2024-03-08T11:40:32;28.50;;;13.60;;
72198;SDS011;72266;51.056;16.880;2024-03-08T11:43:06;29.70;;;14.30;;
72198;SDS011;72266;51.056;16.880;2024-03-08T11:45:44;27.00;;;12.80;;
72198;SDS011;72266;51.056;16.880;2024-03-08T11:48:20;28.30;;;14.40;;
72198;SDS011;72266;51.056;16.880;2024-03-08T11:51:00;32.00;;;15.90;;
72198;SDS011;72266;51.056;16.880;2024-03-08T11:53:36;29.70;;;14.60;;
72198;SDS011;72266;51.056;16.880;2024-03-08T11:56:14;31.20;;;15.90;;
72198;SDS011;72266;51.056;16.880;2024-03-08T11:59:03;30.40;;;15.00;;
72198;SDS011;72266;51.056;16.880;2024-03-08T12:01:57;30.30;;;13.90;;
72198;SDS011;72266;51.056;16.880;2024-03-08T12:04:33;27.00;;;12.70;;
72198;SDS011;72266;51.056;16.880;2024-03-08T12:07:11;32.60;;;13.80;;
72198;SDS011;72266;51.056;16.880;2024-03-08T12:12:49;34.30;;;16.10;;
72198;SDS011;72266;51.056;16.880;2024-03-08T12:15:23;30.30;;;12.10;;
72198;SDS011;72266;51.056;16.880;2024-03-08T12:17:57;26.90;;;12.40;;
72198;SDS011;72266;51.056;16.880;2024-03-08T12:20:32;32.00;;;15.30;;
72198;SDS011;72266;51.056;16.880;2024-03-08T12:23:06;30.30;;;13.80;;
72198;SDS011;72266;51.056;16.880;2024-03-08T12:25:55;23.60;;;11.30;;
72198;SDS011;72266;51.056;16.880;2024-03-08T12:28:29;24.90;;;11.10;;
72198;SDS011;72266;51.056;16.880;2024-03-08T12:31:04;31.30;;;15.20;;
72198;SDS011;72266;51.056;16.880;2024-03-08T12:33:49;28.30;;;13.90;;
72198;SDS011;72266;51.056;16.880;2024-03-08T12:36:27;26.00;;;13.30;;
72198;SDS011;72266;51.056;16.880;2024-03-08T12:39:00;29.50;;;14.10;;
72198;SDS011;72266;51.056;16.880;2024-03-08T12:41:38;25.50;;;11.80;;
72198;SDS011;72266;51.056;16.880;2024-03-08T12:44:13;32.00;;;14.30;;
72198;SDS011;72266;51.056;16.880;2024-03-08T12:46:47;27.80;;;13.00;;
72198;SDS011;72266;51.056;16.880;2024-03-08T12:49:27;27.50;;;11.90;;
72198;SDS011;72266;51.056;16.880;2024-03-08T12:52:01;22.90;;;10.80;;
72198;SDS011;72266;51.056;16.880;2024-03-08T12:54:36;25.90;;;11.40;;
72198;SDS011;72266;51.056;16.880;2024-03-08T12:57:10;23.90;;;11.10;;
72198;SDS011;72266;51.056;16.880;2024-03-08T12:59:44;24.30;;;11.80;;
72198;SDS011;72266;51.056;16.880;2024-03-08T13:02:20;26.00;;;12.10;;
72198;SDS011;72266;51.056;16.880;2024-03-08T13:04:54;25.60;;;12.20;;
72198;SDS011;72266;51.056;16.880;2024-03-08T13:07:28;27.50;;;12.50;;
72198;SDS011;72266;51.056;16.880;2024-03-08T13:10:06;24.60;;;11.70;;
72198;SDS011;72266;51.056;16.880;2024-03-08T13:12:45;26.40;;;12.40;;
72198;SDS011;72266;51.056;16.880;2024-03-08T13:15:23;25.50;;;12.40;;
72198;SDS011;72266;51.056;16.880;2024-03-08T13:17:59;26.70;;;12.00;;
72198;SDS011;72266;51.056;16.880;2024-03-08T13:20:38;25.10;;;12.50;;
72198;SDS011;72266;51.056;16.880;2024-03-08T13:23:19;20.00;;;9.70;;
72198;SDS011;72266;51.056;16.880;2024-03-08T13:25:52;26.20;;;12.30;;
72198;SDS011;72266;51.056;16.880;2024-03-08T13:28:27;26.20;;;12.10;;
72198;SDS011;72266;51.056;16.880;2024-03-08T13:31:02;24.90;;;11.40;;
72198;SDS011;72266;51.056;16.880;2024-03-08T13:33:44;19.60;;;9.60;;
72198;SDS011;72266;51.056;16.880;2024-03-08T13:36:18;22.10;;;10.50;;
72198;SDS011;72266;51.056;16.880;2024-03-08T13:38:56;24.10;;;10.40;;
72198;SDS011;72266;51.056;16.880;2024-03-08T13:41:30;18.40;;;9.10;;
72198;SDS011;72266;51.056;16.880;2024-03-08T13:44:04;23.20;;;10.90;;
72198;SDS011;72266;51.056;16.880;2024-03-08T13:46:37;22.00;;;11.20;;
72198;SDS011;72266;51.056;16.880;2024-03-08T13:49:13;24.60;;;11.50;;
72198;SDS011;72266;51.056;16.880;2024-03-08T13:51:47;24.20;;;11.50;;
72198;SDS011;72266;51.056;16.880;2024-03-08T13:54:25;24.90;;;10.90;;
72198;SDS011;72266;51.056;16.880;2024-03-08T13:57:02;27.90;;;11.40;;
72198;SDS011;72266;51.056;16.880;2024-03-08T13:59:37;25.80;;;11.30;;
72198;SDS011;72266;51.056;16.880;2024-03-08T14:02:11;18.70;;;8.60;;
72198;SDS011;72266;51.056;16.880;2024-03-08T14:04:45;19.40;;;8.80;;
72198;SDS011;72266;51.056;16.880;2024-03-08T14:07:20;21.60;;;10.80;;
72198;SDS011;72266;51.056;16.880;2024-03-08T14:09:56;21.60;;;10.00;;
72198;SDS011;72266;51.056;16.880;2024-03-08T14:12:31;21.20;;;9.80;;
72198;SDS011;72266;51.056;16.880;2024-03-08T14:15:08;25.10;;;11.10;;
72198;SDS011;72266;51.056;16.880;2024-03-08T14:17:43;24.50;;;11.20;;
72198;SDS011;72266;51.056;16.880;2024-03-08T14:20:17;26.20;;;11.00;;
72198;SDS011;72266;51.056;16.880;2024-03-08T14:22:59;17.50;;;7.90;;
72198;SDS011;72266;51.056;16.880;2024-03-08T14:25:37;22.40;;;10.30;;
72198;SDS011;72266;51.056;16.880;2024-03-08T14:28:16;22.70;;;11.10;;
72198;SDS011;72266;51.056;16.880;2024-03-08T14:30:53;22.70;;;10.40;;
72198;SDS011;72266;51.056;16.880;2024-03-08T14:33:30;26.10;;;10.50;;
72198;SDS011;72266;51.056;16.880;2024-03-08T14:36:04;22.90;;;9.30;;
72198;SDS011;72266;51.056;16.880;2024-03-08T14:38:46;20.50;;;10.00;;
72198;SDS011;72266;51.056;16.880;2024-03-08T14:41:21;31.40;;;9.90;;
72198;SDS011;72266;51.056;16.880;2024-03-08T14:43:57;22.20;;;9.50;;
72198;SDS011;72266;51.056;16.880;2024-03-08T14:46:32;18.70;;;8.60;;
72198;SDS011;72266;51.056;16.880;2024-03-08T14:49:06;22.00;;;9.90;;
72198;SDS011;72266;51.056;16.880;2024-03-08T14:51:40;18.60;;;8.50;;
72198;SDS011;72266;51.056;16.880;2024-03-08T14:54:18;16.10;;;7.00;;
72198;SDS011;72266;51.056;16.880;2024-03-08T14:56:55;20.10;;;9.00;;
72198;SDS011;72266;51.056;16.880;2024-03-08T14:59:37;23.80;;;10.40;;
72198;SDS011;72266;51.056;16.880;2024-03-08T15:02:17;22.10;;;11.00;;
72198;SDS011;72266;51.056;16.880;2024-03-08T15:04:53;24.00;;;10.90;;
72198;SDS011;72266;51.056;16.880;2024-03-08T15:07:29;23.00;;;10.90;;
72198;SDS011;72266;51.056;16.880;2024-03-08T15:10:05;23.50;;;10.80;;